createdAt,value
2023-03-27T00:01:17.793Z,95819.44
2023-03-27T00:03:44.890Z,95835.88
2023-03-27T00:06:17.156Z,95828.13
2023-03-27T00:08:50.606Z,95830.63
2023-03-27T00:11:17.591Z,95834.06
2023-03-27T00:13:50.445Z,95840.16
2023-03-27T00:16:22.058Z,95837.53
2023-03-27T00:18:49.080Z,95840.97
2023-03-27T00:21:15.752Z,95835.75
2023-03-27T00:23:42.439Z,95835.13
2023-03-27T00:26:09.091Z,95836.06
2023-03-27T00:28:36.433Z,95842.38
2023-03-27T00:31:03.516Z,95838.22
2023-03-27T00:33:30.060Z,95843.44
2023-03-27T00:35:56.776Z,95845.19
2023-03-27T00:38:24.320Z,95838.22
2023-03-27T00:40:53.593Z,95829.31
2023-03-27T00:43:22.377Z,95831.19
2023-03-27T00:45:52.699Z,95838.22
2023-03-27T00:48:20.694Z,95830.69
2023-03-27T00:50:49.222Z,95831.47
2023-03-27T00:53:22.026Z,95832.63
2023-03-27T00:55:51.667Z,95834.63
2023-03-27T00:58:23.160Z,95841.66
2023-03-27T01:00:52.771Z,95842.59
2023-03-27T01:03:21.412Z,95847.94
2023-03-27T01:05:50.288Z,95847.94
2023-03-27T01:08:17.350Z,95851.47
2023-03-27T01:10:49.915Z,95849.69
2023-03-27T01:13:40.450Z,95842.91
2023-03-27T01:16:10.059Z,95843.00
2023-03-27T01:18:53.697Z,95847.94
2023-03-27T01:21:38.696Z,95855.97
2023-03-27T01:24:30.749Z,95861.00
2023-03-27T01:27:02.382Z,95859.19
2023-03-27T01:29:38.487Z,95858.03
2023-03-27T01:32:38.822Z,95862.44
2023-03-27T01:35:20.185Z,95863.50
2023-03-27T01:37:50.351Z,95855.53
2023-03-27T01:40:29.950Z,95862.44
2023-03-27T01:43:09.769Z,95860.34
2023-03-27T01:45:52.527Z,95865.44
2023-03-27T01:48:30.503Z,95869.94
2023-03-27T01:51:01.939Z,95857.22
2023-03-27T01:53:39.872Z,95860.88
2023-03-27T01:56:26.708Z,95849.56
2023-03-27T01:59:04.016Z,95861.59
2023-03-27T02:01:37.570Z,95858.97
2023-03-27T02:04:09.379Z,95856.28
2023-03-27T02:06:44.742Z,95843.88
2023-03-27T02:09:22.871Z,95858.91
2023-03-27T02:12:07.348Z,95857.59
2023-03-27T02:14:40.298Z,95856.63
2023-03-27T02:17:10.861Z,95859.22
2023-03-27T02:19:46.569Z,95855.78
2023-03-27T02:22:14.706Z,95858.63
2023-03-27T02:24:43.347Z,95857.78
2023-03-27T02:27:22.272Z,95863.63
2023-03-27T02:30:00.023Z,95866.97
2023-03-27T02:32:58.268Z,95867.69
2023-03-27T02:35:36.865Z,95874.38
2023-03-27T02:38:19.198Z,95870.81
2023-03-27T02:41:01.734Z,95870.81
2023-03-27T02:43:55.947Z,95866.31
2023-03-27T02:46:41.410Z,95863.69
2023-03-27T02:49:13.958Z,95873.31
2023-03-27T02:51:45.575Z,95876.75
2023-03-27T02:54:17.081Z,95875.22
2023-03-27T02:56:49.623Z,95870.00
2023-03-27T02:59:22.497Z,95868.31
2023-03-27T03:01:49.831Z,95872.94
2023-03-27T03:04:31.082Z,95874.78
2023-03-27T03:06:58.913Z,95869.69
2023-03-27T03:09:25.548Z,95872.19
2023-03-27T03:11:53.718Z,95866.25
2023-03-27T03:14:31.018Z,95869.81
2023-03-27T03:16:57.581Z,95867.19
2023-03-27T03:19:24.173Z,95864.69
2023-03-27T03:21:50.807Z,95865.63
2023-03-27T03:24:17.680Z,95870.13
2023-03-27T03:26:45.225Z,95864.16
2023-03-27T03:29:14.217Z,95866.78
2023-03-27T03:31:43.795Z,95870.44
2023-03-27T03:34:16.402Z,95863.78
2023-03-27T03:36:44.928Z,95871.84
2023-03-27T03:39:12.669Z,95867.66
2023-03-27T03:41:39.442Z,95871.44
2023-03-27T03:44:05.990Z,95869.88
2023-03-27T03:46:32.699Z,95869.13
2023-03-27T03:48:59.568Z,95867.97
2023-03-27T03:51:26.458Z,95867.44
2023-03-27T03:53:53.093Z,95876.44
2023-03-27T03:56:19.643Z,95877.47
2023-03-27T03:58:46.110Z,95868.81
2023-03-27T04:01:12.667Z,95882.94
2023-03-27T04:03:39.490Z,95877.69
2023-03-27T04:06:07.388Z,95880.31
2023-03-27T04:08:35.004Z,95891.59
2023-03-27T04:11:01.618Z,95893.47
2023-03-27T04:13:28.121Z,95889.91
2023-03-27T04:15:55.456Z,95897.66
2023-03-27T04:18:24.641Z,95888.16
2023-03-27T04:20:51.313Z,95888.03
2023-03-27T04:23:20.311Z,95889.09
2023-03-27T04:25:47.380Z,95888.25
2023-03-27T04:28:17.452Z,95887.28
2023-03-27T04:30:44.337Z,95891.81
2023-03-27T04:33:30.591Z,95890.75
2023-03-27T04:36:06.853Z,95894.09
2023-03-27T04:38:38.129Z,95901.09
2023-03-27T04:41:06.127Z,95895.97
2023-03-27T04:43:36.574Z,95895.06
2023-03-27T04:46:06.436Z,95894.19
2023-03-27T04:48:33.619Z,95906.22
2023-03-27T04:51:00.173Z,95903.28
2023-03-27T04:53:30.308Z,95910.09
2023-03-27T04:55:57.278Z,95911.03
2023-03-27T04:58:25.756Z,95911.03
2023-03-27T05:00:56.061Z,95913.63
2023-03-27T05:03:27.778Z,95918.97
2023-03-27T05:05:54.418Z,95921.59
2023-03-27T05:08:20.977Z,95922.81
2023-03-27T05:10:47.528Z,95931.41
2023-03-27T05:13:14.622Z,95929.59
2023-03-27T05:15:41.522Z,95943.31
2023-03-27T05:18:09.231Z,95941.63
2023-03-27T05:20:37.022Z,95944.97
2023-03-27T05:23:03.965Z,95950.84
2023-03-27T05:25:31.701Z,95955.03
2023-03-27T05:27:59.778Z,95956.06
2023-03-27T05:30:26.970Z,95957.81
2023-03-27T05:32:53.939Z,95966.41
2023-03-27T05:35:23.282Z,95970.69
2023-03-27T05:37:52.828Z,95976.09
2023-03-27T05:40:22.483Z,95984.97
2023-03-27T05:42:51.140Z,95988.44
2023-03-27T05:45:18.382Z,95987.50
2023-03-27T05:47:46.157Z,95990.22
2023-03-27T05:50:14.367Z,95989.28
2023-03-27T05:52:41.632Z,95990.84
2023-03-27T05:55:09.082Z,95998.69
2023-03-27T05:57:39.886Z,96004.72
2023-03-27T06:00:13.526Z,96008.28
2023-03-27T06:02:43.394Z,96018.75
2023-03-27T06:05:15.176Z,96019.19
2023-03-27T06:07:43.472Z,96023.25
2023-03-27T06:10:13.406Z,96034.41
2023-03-27T06:12:41.835Z,96050.84
2023-03-27T06:15:10.110Z,96068.31
2023-03-27T06:17:39.187Z,96076.34
2023-03-27T06:20:12.022Z,96104.88
2023-03-27T06:22:44.171Z,96112.09
2023-03-27T06:25:10.752Z,96121.16
2023-03-27T06:27:38.040Z,96130.03
2023-03-27T06:30:05.324Z,96148.94
2023-03-27T06:32:31.860Z,96162.47
2023-03-27T06:34:58.375Z,96166.88
2023-03-27T06:37:25.080Z,96177.88
2023-03-27T06:39:52.060Z,96196.06
2023-03-27T06:42:18.615Z,96200.63
2023-03-27T06:44:45.141Z,96210.50
2023-03-27T06:47:12.722Z,96212.38
2023-03-27T06:49:39.375Z,96235.09
2023-03-27T06:52:06.888Z,96230.78
2023-03-27T06:54:33.725Z,96253.63
2023-03-27T06:57:01.593Z,96272.34
2023-03-27T06:59:28.138Z,96275.69
2023-03-27T07:01:54.711Z,96283.22
2023-03-27T07:04:21.318Z,96300.13
2023-03-27T07:06:49.019Z,96300.31
2023-03-27T07:09:15.673Z,96315.97
2023-03-27T07:11:42.533Z,96325.97
2023-03-27T07:14:09.265Z,96343.72
2023-03-27T07:16:36.006Z,96358.16
2023-03-27T07:19:05.511Z,96367.16
2023-03-27T07:21:32.146Z,96381.03
2023-03-27T07:23:58.701Z,96394.66
2023-03-27T07:26:25.528Z,96394.75
2023-03-27T07:28:52.068Z,96405.09
2023-03-27T07:33:48.365Z,96423.78
2023-03-27T07:36:14.970Z,96436.22
2023-03-27T07:38:42.166Z,96443.00
2023-03-27T07:41:09.256Z,96450.91
2023-03-27T07:43:35.905Z,96451.81
2023-03-27T07:46:05.985Z,96473.34
2023-03-27T07:48:32.966Z,96476.81
2023-03-27T07:51:10.644Z,96482.94
2023-03-27T07:53:39.561Z,96496.56
2023-03-27T07:56:08.736Z,96501.97
2023-03-27T07:58:35.411Z,96513.06
2023-03-27T08:01:02.870Z,96520.66
2023-03-27T08:03:30.814Z,96517.22
2023-03-27T08:05:59.935Z,96532.69
2023-03-27T08:08:27.142Z,96542.94
2023-03-27T08:10:58.176Z,96541.78
2023-03-27T08:13:24.954Z,96549.59
2023-03-27T08:15:51.548Z,96563.75
2023-03-27T08:18:18.234Z,96566.03
2023-03-27T08:20:45.682Z,96585.41
2023-03-27T08:23:12.309Z,96598.63
2023-03-27T08:25:38.869Z,96598.69
2023-03-27T08:28:05.471Z,96616.38
2023-03-27T08:30:32.312Z,96620.00
2023-03-27T08:33:00.230Z,96631.59
2023-03-27T08:35:27.005Z,96640.97
2023-03-27T08:37:54.051Z,96653.09
2023-03-27T08:40:28.159Z,96650.91
2023-03-27T08:42:58.656Z,96661.25
2023-03-27T08:45:37.218Z,96663.53
2023-03-27T08:48:15.780Z,96678.75
2023-03-27T08:50:49.563Z,96677.22
2023-03-27T08:53:53.994Z,96680.69
2023-03-27T08:56:21.113Z,96683.03
2023-03-27T08:58:48.669Z,96696.69
2023-03-27T09:01:26.382Z,96705.66
2023-03-27T09:04:20.871Z,96714.41
2023-03-27T09:06:48.184Z,96718.13
2023-03-27T09:09:27.155Z,96721.06
2023-03-27T09:12:24.823Z,96721.16
2023-03-27T09:15:05.084Z,96725.88
2023-03-27T09:17:40.438Z,96735.13
2023-03-27T09:20:30.057Z,96733.72
2023-03-27T09:23:05.497Z,96747.75
2023-03-27T09:25:38.024Z,96758.72
2023-03-27T09:28:29.809Z,96757.50
2023-03-27T09:30:57.351Z,96752.84
2023-03-27T09:33:25.512Z,96757.75
2023-03-27T09:35:52.153Z,96762.97
2023-03-27T09:38:21.948Z,96780.34
2023-03-27T09:40:54.780Z,96777.22
2023-03-27T09:43:26.389Z,96769.94
2023-03-27T09:45:54.892Z,96785.50
2023-03-27T09:48:31.936Z,96783.50
2023-03-27T09:50:58.647Z,96787.81
2023-03-27T09:53:27.862Z,96794.75
2023-03-27T09:56:05.401Z,96802.91
2023-03-27T09:58:40.132Z,96809.47
2023-03-27T10:01:15.640Z,96822.50
2023-03-27T10:03:48.891Z,96815.59
2023-03-27T10:06:26.281Z,96825.59
2023-03-27T10:08:55.390Z,96835.38
2023-03-27T10:11:32.796Z,96841.50
2023-03-27T10:14:02.096Z,96857.13
2023-03-27T10:16:30.015Z,96861.00
2023-03-27T10:18:59.922Z,96858.03
2023-03-27T10:21:33.857Z,96856.28
2023-03-27T10:24:06.507Z,96862.53
2023-03-27T10:26:37.136Z,96854.94
2023-03-27T10:29:21.980Z,96860.09
2023-03-27T10:31:52.016Z,96862.19
2023-03-27T10:34:28.182Z,96867.25
2023-03-27T10:36:55.357Z,96871.28
2023-03-27T10:39:27.845Z,96864.31
2023-03-27T10:41:54.770Z,96859.22
2023-03-27T10:44:25.788Z,96860.88
2023-03-27T10:46:53.369Z,96863.50
2023-03-27T10:49:39.795Z,96877.50
2023-03-27T10:52:47.283Z,96876.56
2023-03-27T10:55:41.560Z,96891.59
2023-03-27T10:58:22.179Z,96894.31
2023-03-27T11:00:55.943Z,96891.69
2023-03-27T11:03:35.153Z,96895.38
2023-03-27T11:06:05.523Z,96899.34
2023-03-27T11:09:05.179Z,96900.28
2023-03-27T11:11:47.267Z,96910.03
2023-03-27T11:14:40.776Z,96920.13
2023-03-27T11:17:10.325Z,96921.44
2023-03-27T11:19:55.895Z,96922.16
2023-03-27T11:22:32.565Z,96929.41
2023-03-27T11:25:07.327Z,96939.13
2023-03-27T11:27:45.617Z,96938.94
2023-03-27T11:30:50.736Z,96939.63
2023-03-27T11:33:42.716Z,96942.91
2023-03-27T11:36:34.489Z,96942.25
2023-03-27T11:39:27.213Z,96947.25
2023-03-27T11:42:00.256Z,96945.47
2023-03-27T11:44:30.370Z,96946.75
2023-03-27T11:46:59.782Z,96957.00
2023-03-27T11:49:35.005Z,96968.56
2023-03-27T11:52:26.211Z,96977.91
2023-03-27T11:55:32.578Z,96984.91
2023-03-27T11:58:32.168Z,96999.03
2023-03-27T12:01:27.094Z,97013.06
2023-03-27T12:04:21.760Z,97007.00
2023-03-27T12:07:18.787Z,97004.53
2023-03-27T12:10:00.465Z,96987.50
2023-03-27T12:12:51.383Z,96977.75
2023-03-27T12:15:39.494Z,96969.00
2023-03-27T12:18:35.865Z,96964.66
2023-03-27T12:21:54.038Z,96960.78
2023-03-27T12:24:59.670Z,96955.16
2023-03-27T12:28:00.125Z,96963.03
2023-03-27T12:31:09.507Z,96955.94
2023-03-27T12:33:50.687Z,96958.03
2023-03-27T12:36:22.377Z,96975.16
2023-03-27T12:38:49.072Z,96991.13
2023-03-27T12:41:28.753Z,97014.75
2023-03-27T12:43:57.913Z,97007.16
2023-03-27T12:46:24.471Z,96996.94
2023-03-27T12:49:06.172Z,96984.06
2023-03-27T12:51:51.118Z,96985.75
2023-03-27T12:54:26.548Z,96991.88
2023-03-27T12:57:22.374Z,96981.16
2023-03-27T12:59:48.975Z,96980.66
2023-03-27T13:02:16.078Z,96983.91
2023-03-27T13:05:01.392Z,96980.63
2023-03-27T13:07:57.667Z,96977.09
2023-03-27T13:10:41.680Z,96961.41
2023-03-27T13:13:38.045Z,96968.19
2023-03-27T13:16:04.626Z,96980.53
2023-03-27T13:18:55.475Z,96988.63
2023-03-27T13:21:51.260Z,97000.28
2023-03-27T13:24:42.397Z,96994.25
2023-03-27T13:27:21.660Z,97000.28
2023-03-27T13:29:49.687Z,97010.78
2023-03-27T13:32:38.917Z,97028.44
2023-03-27T13:35:05.623Z,97040.13
2023-03-27T13:37:36.423Z,97045.44
2023-03-27T13:40:24.739Z,97028.59
2023-03-27T13:42:55.348Z,97039.19
2023-03-27T13:45:49.731Z,97034.94
2023-03-27T13:48:53.933Z,97034.94
2023-03-27T13:51:45.126Z,97043.78
2023-03-27T13:54:40.487Z,97042.13
2023-03-27T13:57:48.621Z,97038.19
2023-03-27T14:00:50.091Z,97038.06
2023-03-27T14:03:37.825Z,97046.50
2023-03-27T14:06:29.153Z,97050.25
2023-03-27T14:09:16.005Z,97052.28
2023-03-27T14:12:10.444Z,97046.41
2023-03-27T14:14:49.492Z,97041.94
2023-03-27T14:18:06.920Z,97051.84
2023-03-27T14:20:45.310Z,97045.13
2023-03-27T14:23:28.512Z,97042.50
2023-03-27T14:26:03.437Z,97050.06
2023-03-27T14:28:31.723Z,97058.50
2023-03-27T14:31:03.817Z,97049.50
2023-03-27T14:33:30.868Z,97050.47
2023-03-27T14:36:04.009Z,97046.06
2023-03-27T14:38:35.627Z,97058.97
2023-03-27T14:41:17.022Z,97068.44
2023-03-27T14:43:51.524Z,97071.88
2023-03-27T14:46:23.287Z,97074.09
2023-03-27T14:48:54.498Z,97077.75
2023-03-27T14:51:27.080Z,97085.09
2023-03-27T14:54:02.123Z,97084.69
2023-03-27T14:56:37.067Z,97085.81
2023-03-27T14:59:07.799Z,97096.75
2023-03-27T15:01:35.107Z,97104.13
2023-03-27T15:04:03.277Z,97101.91
2023-03-27T15:06:36.290Z,97111.66
2023-03-27T15:09:05.635Z,97115.28
2023-03-27T15:11:38.470Z,97117.66
2023-03-27T15:14:06.207Z,97113.25
2023-03-27T15:16:35.848Z,97121.19
2023-03-27T15:19:13.949Z,97127.75
2023-03-27T15:21:50.973Z,97125.88
2023-03-27T15:24:44.968Z,97126.25
2023-03-27T15:27:27.155Z,97130.44
2023-03-27T15:29:57.652Z,97140.19
2023-03-27T15:32:30.812Z,97135.97
2023-03-27T15:35:03.369Z,97142.09
2023-03-27T15:37:31.836Z,97151.03
2023-03-27T15:40:13.253Z,97161.66
2023-03-27T15:42:51.675Z,97158.78
2023-03-27T15:45:21.496Z,97169.00
2023-03-27T15:48:00.973Z,97168.59
2023-03-27T15:50:28.088Z,97186.25
2023-03-27T15:52:58.160Z,97190.78
2023-03-27T15:55:32.331Z,97195.63
2023-03-27T15:58:00.184Z,97185.22
2023-03-27T16:00:28.861Z,97187.88
2023-03-27T16:02:55.847Z,97190.47
2023-03-27T16:05:22.954Z,97188.31
2023-03-27T16:07:49.642Z,97198.53
2023-03-27T16:10:36.382Z,97202.84
2023-03-27T16:13:04.097Z,97213.34
2023-03-27T16:15:41.111Z,97214.78
2023-03-27T16:18:17.380Z,97215.50
2023-03-27T16:20:44.677Z,97214.66
2023-03-27T16:23:11.153Z,97217.84
2023-03-27T16:25:38.088Z,97216.56
2023-03-27T16:28:08.962Z,97221.22
2023-03-27T16:30:39.098Z,97225.91
2023-03-27T16:33:16.667Z,97230.56
2023-03-27T16:35:44.209Z,97243.75
2023-03-27T16:38:11.843Z,97236.25
2023-03-27T16:40:38.368Z,97246.09
2023-03-27T16:43:04.934Z,97248.97
2023-03-27T16:45:32.047Z,97263.97
2023-03-27T16:47:59.119Z,97274.59
2023-03-27T16:50:27.578Z,97280.88
2023-03-27T16:52:54.057Z,97296.44
2023-03-27T16:55:20.981Z,97305.44
2023-03-27T16:57:47.877Z,97310.69
2023-03-27T17:00:16.021Z,97329.03
2023-03-27T17:02:44.362Z,97343.03
2023-03-27T17:05:11.282Z,97337.44
2023-03-27T17:07:37.855Z,97333.41
2023-03-27T17:10:05.185Z,97342.31
2023-03-27T17:12:32.307Z,97341.88
2023-03-27T17:14:58.893Z,97358.06
2023-03-27T17:17:27.491Z,97359.84
2023-03-27T17:19:54.354Z,97368.09
2023-03-27T17:22:21.492Z,97375.34
2023-03-27T17:24:56.081Z,97373.78
2023-03-27T17:27:25.788Z,97382.69
2023-03-27T17:29:52.302Z,97383.16
2023-03-27T17:32:18.814Z,97392.38
2023-03-27T17:34:45.716Z,97394.34
2023-03-27T17:37:12.576Z,97378.25
2023-03-27T17:39:39.624Z,97364.84
2023-03-27T17:42:06.623Z,97371.38
2023-03-27T17:44:33.202Z,97380.44
2023-03-27T17:47:00.501Z,97383.22
2023-03-27T17:49:27.908Z,97396.56
2023-03-27T17:51:54.230Z,97388.47
2023-03-27T17:54:20.717Z,97397.56
2023-03-27T17:56:47.250Z,97397.97
2023-03-27T17:59:13.756Z,97400.84
2023-03-27T18:01:40.455Z,97394.31
2023-03-27T18:04:07.197Z,97396.25
2023-03-27T18:06:33.924Z,97395.41
2023-03-27T18:09:00.423Z,97399.00
2023-03-27T18:11:29.141Z,97409.59
2023-03-27T18:13:55.838Z,97412.28
2023-03-27T18:16:23.064Z,97412.28
2023-03-27T18:18:51.060Z,97412.25
2023-03-27T18:21:17.576Z,97416.56
2023-03-27T18:23:45.969Z,97415.81
2023-03-27T18:26:13.211Z,97423.59
2023-03-27T18:28:39.775Z,97432.34
2023-03-27T18:31:08.992Z,97432.44
2023-03-27T18:33:36.577Z,97429.06
2023-03-27T18:36:05.993Z,97432.72
2023-03-27T18:38:32.651Z,97438.03
2023-03-27T18:40:59.991Z,97444.25
2023-03-27T18:43:26.823Z,97437.47
2023-03-27T18:46:02.774Z,97440.28
2023-03-27T18:48:31.103Z,97445.56
2023-03-27T18:51:03.270Z,97451.66
2023-03-27T18:53:30.323Z,97449.97
2023-03-27T18:55:58.585Z,97444.81
2023-03-27T18:58:27.601Z,97444.91
2023-03-27T19:00:56.786Z,97445.84
2023-03-27T19:03:26.337Z,97442.47
2023-03-27T19:05:53.264Z,97445.09
2023-03-27T19:08:20.898Z,97445.19
2023-03-27T19:10:47.522Z,97440.88
2023-03-27T19:13:14.029Z,97440.94
2023-03-27T19:15:41.872Z,97439.16
2023-03-27T19:18:09.285Z,97443.59
2023-03-27T19:20:36.403Z,97448.00
2023-03-27T19:23:03.240Z,97443.78
2023-03-27T19:25:30.044Z,97450.75
2023-03-27T19:27:56.546Z,97441.31
2023-03-27T19:30:23.429Z,97455.13
2023-03-27T19:32:51.256Z,97453.38
2023-03-27T19:35:19.426Z,97466.25
2023-03-27T19:37:46.631Z,97457.59
2023-03-27T19:40:13.818Z,97467.94
2023-03-27T19:42:40.590Z,97468.56
2023-03-27T19:45:07.607Z,97467.38
2023-03-27T19:47:34.330Z,97468.16
2023-03-27T19:50:01.162Z,97474.47
2023-03-27T19:52:27.725Z,97474.50
2023-03-27T19:54:55.008Z,97477.16
2023-03-27T19:57:22.077Z,97477.38
2023-03-27T19:59:48.567Z,97474.91
2023-03-27T20:02:15.440Z,97481.91
2023-03-27T20:04:42.008Z,97480.31
2023-03-27T20:07:10.001Z,97478.63
2023-03-27T20:09:36.662Z,97482.16
2023-03-27T20:12:04.764Z,97471.75
2023-03-27T20:14:31.355Z,97464.72
2023-03-27T20:16:57.916Z,97456.91
2023-03-27T20:19:28.573Z,97462.03
2023-03-27T20:21:55.412Z,97469.06
2023-03-27T20:24:21.990Z,97464.00
2023-03-27T20:26:51.430Z,97471.69
2023-03-27T20:29:20.991Z,97467.47
2023-03-27T20:31:48.070Z,97471.00
2023-03-27T20:34:15.026Z,97466.81
2023-03-27T20:36:43.380Z,97476.09
2023-03-27T20:39:14.178Z,97476.03
2023-03-27T20:41:40.783Z,97472.63
2023-03-27T20:44:15.583Z,97477.09
2023-03-27T20:46:51.338Z,97482.25
2023-03-27T20:49:39.775Z,97474.44
2023-03-27T20:52:12.751Z,97478.81
2023-03-27T20:54:39.583Z,97476.97
2023-03-27T20:57:06.565Z,97472.81
2023-03-27T20:59:33.600Z,97476.13
2023-03-27T21:02:00.933Z,97470.16
2023-03-27T21:04:28.668Z,97473.56
2023-03-27T21:06:55.782Z,97468.53
2023-03-27T21:09:24.077Z,97462.44
2023-03-27T21:11:51.054Z,97469.41
2023-03-27T21:14:17.617Z,97472.06
2023-03-27T21:16:44.232Z,97467.03
2023-03-27T21:19:11.917Z,97479.13
2023-03-27T21:21:39.134Z,97468.78
2023-03-27T21:24:06.426Z,97481.75
2023-03-27T21:26:33.536Z,97474.84
2023-03-27T21:29:00.351Z,97478.16
2023-03-27T21:31:26.940Z,97479.81
2023-03-27T21:33:53.483Z,97484.03
2023-03-27T21:36:20.645Z,97484.69
2023-03-27T21:38:47.546Z,97486.34
2023-03-27T21:41:16.208Z,97494.75
2023-03-27T21:43:43.131Z,97501.34
2023-03-27T21:46:09.871Z,97500.22
2023-03-27T21:48:36.436Z,97507.72
2023-03-27T21:51:05.737Z,97505.78
2023-03-27T21:53:32.548Z,97502.94
2023-03-27T21:55:59.299Z,97513.09
2023-03-27T21:58:26.757Z,97516.38
2023-03-27T22:00:56.145Z,97512.81
2023-03-27T22:03:22.786Z,97507.50
2023-03-27T22:06:00.990Z,97515.16
2023-03-27T22:08:27.965Z,97515.00
2023-03-27T22:10:58.367Z,97520.19
2023-03-27T22:13:24.958Z,97512.50
2023-03-27T22:15:51.746Z,97509.00
2023-03-27T22:18:18.803Z,97516.75
2023-03-27T22:20:45.332Z,97514.06
2023-03-27T22:23:11.962Z,97516.50
2023-03-27T22:25:38.452Z,97518.22
2023-03-27T22:28:05.218Z,97514.78
2023-03-27T22:30:32.018Z,97527.06
2023-03-27T22:32:58.669Z,97528.06
2023-03-27T22:35:25.270Z,97529.06
2023-03-27T22:37:51.889Z,97534.41
2023-03-27T22:40:18.429Z,97531.88
2023-03-27T22:42:44.874Z,97539.72
2023-03-27T22:45:11.587Z,97538.81
2023-03-27T22:47:38.106Z,97542.19
2023-03-27T22:50:06.445Z,97532.69
2023-03-27T22:52:33.284Z,97541.41
2023-03-27T22:54:59.982Z,97551.19
2023-03-27T22:57:26.528Z,97552.28
2023-03-27T22:59:53.126Z,97553.25
2023-03-27T23:02:19.946Z,97555.13
2023-03-27T23:04:46.517Z,97558.69
2023-03-27T23:07:13.082Z,97565.72
2023-03-27T23:09:39.579Z,97571.78
2023-03-27T23:12:06.180Z,97571.00
2023-03-27T23:14:32.921Z,97571.03
2023-03-27T23:17:00.503Z,97571.00
2023-03-27T23:19:27.069Z,97580.44
2023-03-27T23:21:53.585Z,97572.72
2023-03-27T23:24:20.124Z,97577.00
2023-03-27T23:26:46.662Z,97582.25
2023-03-27T23:29:13.209Z,97583.22
2023-03-27T23:31:39.788Z,97592.56
2023-03-27T23:34:06.344Z,97595.63
2023-03-27T23:36:32.897Z,97600.50
2023-03-27T23:38:59.435Z,97597.72
2023-03-27T23:41:26.097Z,97598.44
2023-03-27T23:43:53.929Z,97596.56
2023-03-27T23:46:20.502Z,97607.81
2023-03-27T23:48:47.030Z,97611.34
2023-03-27T23:51:15.303Z,97618.34
2023-03-27T23:53:42.146Z,97618.34
2023-03-27T23:56:09.155Z,97613.97
2023-03-27T23:58:37.222Z,97624.31
